Time;durP1;ratioP1;P1;durP2;ratioP2;P2;SDS_P1;SDS_P2;PMS_P1;PMS_P2;Temp;Humidity;BMP_temperature;BMP_pressure;BME280_temperature;BME280_humidity;BME280_pressure;Samples;Min_cycle;Max_cycle;Signal;HPM_P1;HPM_P2
2022/04/19 00:00:55;;;;;;;15.63;12.88;;;9.90;90.50;;;;;;5002602;28;20059;-81
2022/04/19 00:03:21;;;;;;;17.13;12.38;;;9.90;90.20;;;;;;4987726;28;20052;-81
2022/04/19 00:05:47;;;;;;;13.80;10.68;;;9.90;90.20;;;;;;4985213;28;20041;-82
2022/04/19 00:08:15;;;;;;;13.55;9.82;;;9.80;90.00;;;;;;4997802;28;20033;-82
2022/04/19 00:10:42;;;;;;;15.52;10.70;;;9.90;89.90;;;;;;4992425;28;20038;-81
2022/04/19 00:13:10;;;;;;;15.70;11.02;;;9.90;89.80;;;;;;5012557;28;20042;-82
2022/04/19 00:15:38;;;;;;;13.90;9.55;;;9.90;89.60;;;;;;4986222;28;20565;-82
2022/04/19 00:18:06;;;;;;;15.57;10.35;;;9.90;88.50;;;;;;5032700;28;20049;-81
2022/04/19 00:20:35;;;;;;;15.95;9.27;;;9.90;88.30;;;;;;5007589;28;20076;-81
2022/04/19 00:23:03;;;;;;;12.90;8.85;;;9.90;88.00;;;;;;5012774;28;20088;-81
2022/04/19 00:25:29;;;;;;;17.98;9.65;;;9.90;88.10;;;;;;5014555;28;20444;-81
2022/04/19 00:27:55;;;;;;;13.82;9.55;;;9.90;86.90;;;;;;4992060;28;20107;-81
2022/04/19 00:30:21;;;;;;;14.75;9.90;;;9.80;86.80;;;;;;4988196;28;20041;-81
2022/04/19 00:32:47;;;;;;;15.05;10.13;;;9.80;87.20;;;;;;5025541;28;20038;-81
2022/04/19 00:35:13;;;;;;;11.98;9.93;;;9.80;87.40;;;;;;4996941;28;20044;-81
2022/04/19 00:37:39;;;;;;;14.88;9.93;;;9.80;87.50;;;;;;5012294;28;20064;-81
2022/04/19 00:40:08;;;;;;;15.10;10.27;;;9.70;87.40;;;;;;4985278;28;20037;-81
2022/04/19 00:42:35;;;;;;;12.45;9.77;;;9.60;87.50;;;;;;4997480;28;20045;-81
2022/04/19 00:45:05;;;;;;;12.18;9.45;;;9.60;87.90;;;;;;4998648;28;20038;-81
2022/04/19 00:47:34;;;;;;;11.95;10.30;;;9.60;88.40;;;;;;4996256;28;20045;-81
2022/04/19 00:50:02;;;;;;;11.20;9.13;;;9.60;87.80;;;;;;4994614;28;20029;-81
2022/04/19 00:52:37;;;;;;;13.10;9.60;;;9.60;88.10;;;;;;4996144;28;20046;-81
2022/04/19 00:55:05;;;;;;;13.68;8.88;;;9.60;88.10;;;;;;4998959;28;20045;-81
2022/04/19 00:57:33;;;;;;;10.50;9.02;;;9.50;88.50;;;;;;4995038;28;20056;-82
2022/04/19 00:59:58;;;;;;;13.95;10.10;;;9.50;88.60;;;;;;5014517;28;20578;-81
2022/04/19 01:02:25;;;;;;;15.45;10.30;;;9.40;88.50;;;;;;5009812;28;20121;-81
2022/04/19 01:04:55;;;;;;;12.88;9.38;;;9.40;88.70;;;;;;4987722;28;20088;-82
2022/04/19 01:07:22;;;;;;;13.60;9.82;;;9.40;89.00;;;;;;5006831;28;20034;-81
2022/04/19 01:09:48;;;;;;;9.98;8.18;;;9.30;89.20;;;;;;4980541;28;20485;-81
2022/04/19 01:15:07;;;;;;;13.73;9.80;;;9.30;90.00;;;;;;4997037;28;20052;-81
2022/04/19 01:17:41;;;;;;;12.35;9.18;;;9.20;90.00;;;;;;5001953;28;20287;-82
2022/04/19 01:20:08;;;;;;;12.18;8.80;;;9.20;90.10;;;;;;5000703;28;20103;-82
2022/04/19 01:22:38;;;;;;;14.43;9.18;;;9.20;90.30;;;;;;5011618;28;20073;-81
2022/04/19 01:25:06;;;;;;;11.75;8.65;;;9.10;90.20;;;;;;4998129;28;20061;-81
2022/04/19 01:27:32;;;;;;;11.15;9.10;;;9.10;90.40;;;;;;4995709;28;20030;-81
2022/04/19 01:30:02;;;;;;;12.48;9.52;;;9.10;90.40;;;;;;4984164;28;20080;-81
2022/04/19 01:32:28;;;;;;;12.00;9.05;;;9.10;90.40;;;;;;5010819;28;20361;-82
2022/04/19 01:35:10;;;;;;;9.32;7.50;;;9.00;90.50;;;;;;5007560;28;20038;-81
2022/04/19 01:37:38;;;;;;;11.95;8.30;;;9.00;90.50;;;;;;5013102;28;20041;-81
2022/04/19 01:40:17;;;;;;;11.88;9.30;;;9.00;90.70;;;;;;4985655;28;20097;-81
2022/04/19 01:42:52;;;;;;;13.00;8.80;;;9.00;90.60;;;;;;4999159;28;20040;-81
2022/04/19 01:45:23;;;;;;;12.70;8.88;;;9.00;90.80;;;;;;4990676;28;20080;-81
2022/04/19 01:47:51;;;;;;;12.38;9.35;;;8.90;91.10;;;;;;4996413;28;20034;-81
2022/04/19 01:50:19;;;;;;;12.70;8.48;;;8.90;90.90;;;;;;4991138;28;20335;-81
2022/04/19 01:52:46;;;;;;;13.45;9.93;;;8.90;91.00;;;;;;4982096;28;20037;-81
2022/04/19 01:55:17;;;;;;;13.88;9.30;;;8.90;91.00;;;;;;5006378;28;20060;-81
2022/04/19 01:57:46;;;;;;;11.25;7.70;;;8.80;91.10;;;;;;4999908;28;20718;-81
2022/04/19 02:00:12;;;;;;;14.27;9.90;;;8.80;91.20;;;;;;5011619;28;20049;-81
2022/04/19 02:02:39;;;;;;;12.48;8.90;;;8.80;91.20;;;;;;4992977;28;20041;-81
2022/04/19 02:05:06;;;;;;;11.40;8.95;;;8.70;91.20;;;;;;4996489;22;20021;-59
2022/04/19 02:07:32;;;;;;;13.07;9.30;;;8.70;91.30;;;;;;5009507;28;20081;-59
2022/04/19 02:10:02;;;;;;;11.75;8.25;;;8.70;91.40;;;;;;5032196;28;20133;-61
2022/04/19 02:12:28;;;;;;;11.35;9.07;;;8.70;91.20;;;;;;5018291;28;20051;-60
2022/04/19 02:14:54;;;;;;;12.70;9.52;;;8.70;91.20;;;;;;4998641;28;20111;-59
2022/04/19 02:17:21;;;;;;;11.45;9.00;;;8.70;91.10;;;;;;5009072;28;20515;-60
2022/04/19 02:19:47;;;;;;;11.65;8.35;;;8.70;90.90;;;;;;5014602;28;20412;-59
2022/04/19 02:22:13;;;;;;;12.18;8.15;;;8.60;91.00;;;;;;5025244;28;20988;-59
2022/04/19 02:24:39;;;;;;;12.77;9.13;;;8.60;91.20;;;;;;5028073;28;20040;-61
2022/04/19 02:27:05;;;;;;;12.85;8.43;;;8.60;91.30;;;;;;5012915;28;20076;-60
2022/04/19 02:29:34;;;;;;;10.55;8.32;;;8.60;91.20;;;;;;5001677;28;20263;-61
2022/04/19 02:32:00;;;;;;;12.82;9.70;;;8.60;91.70;;;;;;5016385;28;20083;-60
2022/04/19 02:34:26;;;;;;;11.60;9.63;;;8.60;91.50;;;;;;5017825;28;20053;-59
2022/04/19 02:36:53;;;;;;;13.95;9.00;;;8.60;91.30;;;;;;5013033;28;20048;-58
2022/04/19 02:39:20;;;;;;;9.93;7.65;;;8.50;91.30;;;;;;5009706;28;20311;-59
2022/04/19 02:41:46;;;;;;;12.63;9.38;;;8.50;91.40;;;;;;5010020;28;20040;-59
2022/04/19 02:44:13;;;;;;;11.77;9.45;;;8.50;91.50;;;;;;4990086;28;20103;-61
2022/04/19 02:46:39;;;;;;;15.45;10.05;;;8.50;91.50;;;;;;5011527;28;20060;-58
2022/04/19 02:49:05;;;;;;;9.27;7.53;;;8.40;91.40;;;;;;4975328;28;20472;-61
2022/04/19 02:51:33;;;;;;;11.43;9.02;;;8.40;91.50;;;;;;5016953;28;20037;-59
2022/04/19 02:54:00;;;;;;;10.50;7.55;;;8.50;91.50;;;;;;5011249;28;20045;-60
2022/04/19 02:56:26;;;;;;;14.25;9.32;;;8.50;91.60;;;;;;5031127;28;20068;-58
2022/04/19 02:58:52;;;;;;;13.10;9.43;;;8.50;91.60;;;;;;5030456;28;20069;-60
2022/04/19 03:01:18;;;;;;;11.13;8.95;;;8.50;91.50;;;;;;5011126;28;20376;-60
2022/04/19 03:03:45;;;;;;;12.60;9.10;;;8.50;91.50;;;;;;5011780;28;20102;-58
2022/04/19 03:06:11;;;;;;;14.02;9.65;;;8.40;91.50;;;;;;5009085;28;20136;-59
2022/04/19 03:08:36;;;;;;;11.48;8.50;;;8.30;91.70;;;;;;5017634;28;20037;-61
2022/04/19 03:11:03;;;;;;;12.77;9.32;;;8.30;91.90;;;;;;5029029;28;20524;-59
2022/04/19 03:13:30;;;;;;;12.38;9.52;;;8.30;92.00;;;;;;5012826;28;20454;-59
2022/04/19 03:15:56;;;;;;;12.07;9.52;;;8.30;92.10;;;;;;5012967;28;20495;-58
2022/04/19 03:18:22;;;;;;;11.30;9.15;;;8.20;92.10;;;;;;5014961;28;20049;-60
2022/04/19 03:20:47;;;;;;;12.10;9.18;;;8.20;92.30;;;;;;5011402;28;20206;-59
2022/04/19 03:28:45;;;;;;;19.30;10.15;;;8.10;92.90;;;;;;5032459;28;20041;-60
2022/04/19 03:31:12;;;;;;;12.18;9.52;;;8.10;93.20;;;;;;5032433;28;20047;-60
2022/04/19 03:33:39;;;;;;;15.40;10.02;;;8.10;93.50;;;;;;5033257;28;20037;-60
2022/04/19 03:36:08;;;;;;;12.77;9.05;;;8.00;93.70;;;;;;5030964;28;20049;-60
2022/04/19 03:38:34;;;;;;;11.02;8.65;;;8.10;93.90;;;;;;5038443;28;20033;-60
2022/04/19 03:41:01;;;;;;;15.23;11.13;;;8.00;94.10;;;;;;5017661;28;20120;-59
2022/04/19 03:43:27;;;;;;;15.07;11.88;;;8.00;94.20;;;;;;5020163;28;20048;-59
2022/04/19 03:45:53;;;;;;;16.23;11.02;;;8.00;94.20;;;;;;5021594;28;20391;-59
2022/04/19 03:48:19;;;;;;;16.95;11.02;;;8.00;94.40;;;;;;5036758;28;20044;-59
2022/04/19 03:50:45;;;;;;;15.93;11.10;;;8.00;94.60;;;;;;5006652;28;20090;-59
2022/04/19 03:53:11;;;;;;;13.82;10.18;;;7.90;94.60;;;;;;5016908;28;20454;-57
2022/04/19 03:55:37;;;;;;;15.63;11.38;;;7.90;94.80;;;;;;5037578;28;20394;-60
2022/04/19 03:58:03;;;;;;;16.65;10.98;;;7.90;94.90;;;;;;5015679;28;20037;-59
2022/04/19 04:00:30;;;;;;;14.45;10.38;;;8.00;94.80;;;;;;5019235;28;20566;-60
2022/04/19 04:02:56;;;;;;;16.73;10.70;;;7.90;94.70;;;;;;5017865;28;20080;-60
2022/04/19 04:05:24;;;;;;;13.50;9.85;;;7.90;95.00;;;;;;5035062;28;20127;-59
2022/04/19 04:07:51;;;;;;;16.70;10.85;;;7.90;94.60;;;;;;5002805;28;20132;-58
2022/04/19 04:10:17;;;;;;;15.43;9.95;;;7.90;94.60;;;;;;5033779;28;20600;-59
2022/04/19 04:12:42;;;;;;;15.93;10.30;;;7.90;94.70;;;;;;5028234;28;20036;-60
2022/04/19 04:15:08;;;;;;;15.52;10.55;;;7.90;94.90;;;;;;5029548;28;20045;-59
2022/04/19 04:17:34;;;;;;;17.02;10.45;;;7.90;94.90;;;;;;5012650;28;20045;-61
2022/04/19 04:20:00;;;;;;;14.60;9.95;;;7.90;94.90;;;;;;5008930;28;20081;-61
2022/04/19 04:22:27;;;;;;;16.15;10.85;;;7.90;95.00;;;;;;5028284;28;20052;-60
2022/04/19 04:24:53;;;;;;;17.50;11.48;;;7.90;95.00;;;;;;5008820;28;20068;-58
2022/04/19 04:27:19;;;;;;;15.95;10.18;;;7.90;95.10;;;;;;5014749;28;20507;-61
2022/04/19 04:29:45;;;;;;;14.98;10.23;;;7.90;95.10;;;;;;5002575;28;20063;-58
2022/04/19 04:32:11;;;;;;;13.40;10.00;;;7.90;95.30;;;;;;4996278;28;21831;-59
2022/04/19 04:34:36;;;;;;;15.73;11.10;;;7.90;95.40;;;;;;5032183;28;20369;-59
2022/04/19 04:37:02;;;;;;;16.52;10.85;;;7.90;95.50;;;;;;5019309;28;20048;-58
2022/04/19 04:39:28;;;;;;;15.98;9.57;;;7.90;95.60;;;;;;5026779;28;20620;-60
2022/04/19 04:41:54;;;;;;;16.45;10.68;;;7.90;95.70;;;;;;5033341;28;20049;-59
2022/04/19 04:44:19;;;;;;;16.50;11.95;;;7.90;95.80;;;;;;5009434;28;20045;-59
2022/04/19 04:49:35;;;;;;;17.00;10.35;;;7.90;95.90;;;;;;5014558;28;20073;-59
2022/04/19 04:52:08;;;;;;;14.35;9.45;;;7.80;96.10;;;;;;5030068;28;20045;-58
2022/04/19 04:54:35;;;;;;;14.50;10.10;;;7.80;96.20;;;;;;5029041;28;20155;-59
2022/04/19 04:57:02;;;;;;;14.10;10.20;;;7.80;96.50;;;;;;5025649;28;20112;-60
2022/04/19 04:59:29;;;;;;;16.08;11.77;;;7.80;96.40;;;;;;5028966;28;20556;-58
2022/04/19 05:01:55;;;;;;;16.80;9.90;;;7.80;96.60;;;;;;5013871;28;20045;-59
2022/04/19 05:04:21;;;;;;;17.35;11.15;;;7.80;96.60;;;;;;5029823;28;20040;-60
2022/04/19 05:06:47;;;;;;;15.18;9.88;;;7.80;96.70;;;;;;5028219;28;20040;-61
2022/04/19 05:09:13;;;;;;;14.27;9.75;;;7.80;96.70;;;;;;5012091;28;20110;-60
2022/04/19 05:11:39;;;;;;;13.93;10.15;;;7.90;96.80;;;;;;5030071;28;20049;-60
2022/04/19 05:14:07;;;;;;;16.58;10.38;;;7.90;97.00;;;;;;5028679;28;20084;-61
2022/04/19 05:16:36;;;;;;;15.85;9.52;;;7.90;97.20;;;;;;5023651;28;20151;-60
2022/04/19 05:19:05;;;;;;;17.23;10.65;;;8.00;97.20;;;;;;5026787;28;20033;-58
2022/04/19 05:21:31;;;;;;;16.00;10.20;;;8.00;97.20;;;;;;5008561;28;20458;-59
2022/04/19 05:23:57;;;;;;;14.27;10.18;;;8.00;97.20;;;;;;5009919;28;20053;-60
2022/04/19 05:26:27;;;;;;;15.88;10.55;;;8.10;97.50;;;;;;5011151;28;20045;-60
2022/04/19 05:28:53;;;;;;;13.10;9.82;;;8.10;97.50;;;;;;5002442;28;20067;-60
2022/04/19 05:31:22;;;;;;;14.30;8.93;;;8.10;97.70;;;;;;5018630;28;20480;-59
2022/04/19 05:33:48;;;;;;;12.98;9.05;;;8.20;97.70;;;;;;5013268;28;20053;-60
2022/04/19 05:36:14;;;;;;;14.13;9.40;;;8.20;97.70;;;;;;5025817;28;20052;-58
2022/04/19 05:38:39;;;;;;;15.13;10.32;;;8.20;97.90;;;;;;4999163;28;20335;-59
2022/04/19 05:41:05;;;;;;;12.60;8.43;;;8.30;98.00;;;;;;5038714;28;20139;-60
2022/04/19 05:43:31;;;;;;;12.05;9.15;;;8.30;97.80;;;;;;5036816;28;20187;-59
2022/04/19 05:46:00;;;;;;;15.00;9.07;;;8.40;97.90;;;;;;5044659;28;20037;-59
2022/04/19 05:48:26;;;;;;;12.95;9.05;;;8.40;97.80;;;;;;5023618;28;20060;-60
2022/04/19 05:50:52;;;;;;;19.13;11.10;;;8.50;97.80;;;;;;5019335;28;20072;-59
2022/04/19 05:53:18;;;;;;;12.13;8.85;;;8.60;97.80;;;;;;5035106;28;20045;-60
2022/04/19 05:55:44;;;;;;;16.38;9.50;;;8.60;97.80;;;;;;5032398;28;20049;-59
2022/04/19 05:58:10;;;;;;;13.48;8.73;;;8.60;97.80;;;;;;5036835;28;20063;-60
2022/04/19 06:00:35;;;;;;;11.70;9.02;;;8.70;98.00;;;;;;5038580;28;20037;-59
2022/04/19 06:05:46;;;;;;;13.05;8.90;;;8.80;97.90;;;;;;5002517;28;20495;-64
2022/04/19 06:08:12;;;;;;;14.10;8.55;;;8.90;97.90;;;;;;4996176;28;20094;-63
2022/04/19 06:10:38;;;;;;;14.80;9.27;;;9.00;97.70;;;;;;5002551;28;20084;-64
2022/04/19 06:13:04;;;;;;;14.25;9.00;;;9.10;98.00;;;;;;4994932;28;20137;-66
2022/04/19 06:15:31;;;;;;;15.90;9.40;;;9.10;97.50;;;;;;5001687;28;20045;-64
2022/04/19 06:17:57;;;;;;;13.80;9.15;;;9.20;97.50;;;;;;4978477;28;20112;-64
2022/04/19 06:20:22;;;;;;;15.50;9.20;;;9.30;97.60;;;;;;4993374;28;20041;-64
2022/04/19 06:22:48;;;;;;;15.85;9.18;;;9.50;97.70;;;;;;5003613;28;20038;-64
2022/04/19 06:25:14;;;;;;;11.63;7.90;;;9.50;97.40;;;;;;4989330;28;20046;-63
2022/04/19 06:27:41;;;;;;;14.05;8.95;;;9.60;97.60;;;;;;5001334;28;20038;-64
2022/04/19 06:30:07;;;;;;;12.43;8.57;;;9.70;97.40;;;;;;4988510;28;20058;-65
2022/04/19 06:32:33;;;;;;;12.02;8.48;;;9.80;97.40;;;;;;4994646;28;20050;-64
2022/04/19 06:34:59;;;;;;;12.30;8.88;;;9.90;97.30;;;;;;4980298;28;20123;-64
2022/04/19 06:37:25;;;;;;;12.90;8.88;;;10.00;97.40;;;;;;4997539;23;20528;-82
2022/04/19 06:39:50;;;;;;;10.55;8.60;;;10.00;97.30;;;;;;4987082;23;20052;-63
2022/04/19 06:42:16;;;;;;;12.20;8.68;;;10.10;97.10;;;;;;5005867;28;20527;-62
2022/04/19 06:44:42;;;;;;;11.52;8.70;;;10.20;97.40;;;;;;5003166;28;20037;-63
2022/04/19 06:47:08;;;;;;;12.52;8.38;;;10.30;97.10;;;;;;5006924;28;20568;-64
2022/04/19 06:49:34;;;;;;;13.02;8.82;;;10.40;96.50;;;;;;5006255;28;20081;-63
2022/04/19 06:52:00;;;;;;;18.00;8.90;;;10.50;96.30;;;;;;5008076;28;20385;-63
2022/04/19 06:54:26;;;;;;;11.77;8.02;;;10.60;96.10;;;;;;4998857;28;20085;-63
2022/04/19 06:56:51;;;;;;;14.18;9.07;;;10.60;95.90;;;;;;5006253;28;20138;-63
2022/04/19 06:59:17;;;;;;;12.30;8.30;;;10.70;95.80;;;;;;5005154;28;20547;-63
2022/04/19 07:01:43;;;;;;;12.25;8.40;;;10.90;96.60;;;;;;5006773;28;20041;-64
2022/04/19 07:04:10;;;;;;;12.15;8.90;;;11.00;95.70;;;;;;4993694;28;20049;-64
2022/04/19 07:06:36;;;;;;;14.52;9.95;;;11.10;95.20;;;;;;4991994;28;20044;-64
2022/04/19 07:09:03;;;;;;;11.93;8.43;;;11.20;94.80;;;;;;4999524;28;20072;-64
2022/04/19 07:11:29;;;;;;;12.60;8.68;;;11.20;94.10;;;;;;4999368;28;20041;-63
2022/04/19 07:13:55;;;;;;;11.32;7.80;;;11.40;94.10;;;;;;5007383;28;20052;-63
2022/04/19 07:16:20;;;;;;;13.60;8.55;;;11.50;94.40;;;;;;5005082;28;20059;-64
2022/04/19 07:18:46;;;;;;;14.48;8.93;;;11.60;94.20;;;;;;5004545;28;20046;-63
2022/04/19 07:26:41;;;;;;;15.35;8.50;;;12.00;94.00;;;;;;4994366;28;19983;-65
2022/04/19 07:29:15;;;;;;;11.63;8.02;;;12.10;93.30;;;;;;5003492;28;20454;-65
2022/04/19 07:31:46;;;;;;;13.27;8.02;;;12.30;92.90;;;;;;5009677;28;20076;-64
2022/04/19 07:34:12;;;;;;;13.30;8.15;;;12.50;92.00;;;;;;4985797;28;20480;-66
2022/04/19 07:36:40;;;;;;;12.18;7.97;;;12.60;92.00;;;;;;4980789;28;20064;-63
2022/04/19 07:39:07;;;;;;;12.65;8.63;;;12.70;91.50;;;;;;5009631;28;20053;-64
2022/04/19 07:41:34;;;;;;;12.32;8.20;;;12.70;91.90;;;;;;5006869;28;20492;-63
2022/04/19 07:44:04;;;;;;;11.23;7.90;;;12.90;92.20;;;;;;5018074;28;20061;-64
2022/04/19 07:46:30;;;;;;;14.18;8.40;;;13.00;91.50;;;;;;5015103;28;20114;-66
2022/04/19 07:48:57;;;;;;;13.63;8.70;;;13.10;91.80;;;;;;5018265;28;20311;-64
2022/04/19 07:51:23;;;;;;;13.63;8.57;;;13.20;91.40;;;;;;5019294;28;20037;-63
2022/04/19 07:53:49;;;;;;;11.60;8.23;;;13.20;90.70;;;;;;5005227;28;20044;-65
2022/04/19 07:56:15;;;;;;;14.23;8.52;;;13.20;90.90;;;;;;5011090;28;20120;-65
2022/04/19 07:58:42;;;;;;;14.00;7.82;;;13.30;90.70;;;;;;5009214;28;20464;-65
2022/04/19 08:01:12;;;;;;;11.43;7.80;;;13.40;90.30;;;;;;5017842;28;20049;-66
2022/04/19 08:03:38;;;;;;;13.02;7.90;;;13.50;90.00;;;;;;4999902;28;20164;-66
2022/04/19 08:06:04;;;;;;;12.38;8.00;;;13.60;89.50;;;;;;5042697;28;20109;-66
2022/04/19 08:08:30;;;;;;;11.18;7.32;;;13.60;88.20;;;;;;5001003;28;20041;-67
2022/04/19 08:10:55;;;;;;;11.90;7.50;;;13.70;88.10;;;;;;4990870;28;20065;-67
2022/04/19 08:13:21;;;;;;;12.95;7.68;;;13.80;88.10;;;;;;5029248;28;20111;-66
2022/04/19 08:15:47;;;;;;;11.57;7.55;;;13.90;89.20;;;;;;4992175;28;21928;-66
2022/04/19 08:18:14;;;;;;;11.27;6.97;;;14.10;88.60;;;;;;4996787;28;20286;-66
2022/04/19 08:20:44;;;;;;;9.80;6.78;;;14.20;87.00;;;;;;5020400;28;20046;-67
2022/04/19 08:23:10;;;;;;;11.13;6.85;;;14.20;87.00;;;;;;4989328;28;20595;-65
2022/04/19 08:25:38;;;;;;;10.98;6.57;;;14.30;85.70;;;;;;5001619;28;20042;-68
2022/04/19 08:28:05;;;;;;;7.97;5.50;;;14.50;86.50;;;;;;5028784;28;20042;-67
2022/04/19 08:30:31;;;;;;;7.85;5.72;;;14.60;85.00;;;;;;4990420;28;20177;-67
2022/04/19 08:32:57;;;;;;;9.15;6.13;;;14.70;84.90;;;;;;4988277;28;20444;-66
2022/04/19 08:35:24;;;;;;;10.00;5.70;;;14.70;83.10;;;;;;4997995;28;20248;-66
2022/04/19 08:37:50;;;;;;;8.68;5.00;;;14.80;83.50;;;;;;4990597;28;20046;-67
2022/04/19 08:40:16;;;;;;;8.60;5.68;;;15.00;83.40;;;;;;5007533;28;20104;-67
2022/04/19 08:42:43;;;;;;;6.93;4.07;;;15.10;82.20;;;;;;4984369;28;20041;-66
2022/04/19 08:45:13;;;;;;;6.80;4.30;;;15.10;80.00;;;;;;5017747;28;20041;-66
2022/04/19 08:47:44;;;;;;;8.35;4.13;;;15.20;78.10;;;;;;5006340;28;20091;-67
2022/04/19 08:50:15;;;;;;;8.27;4.75;;;15.30;77.30;;;;;;5027073;28;20059;-67
2022/04/19 08:52:41;;;;;;;6.28;3.88;;;15.40;77.00;;;;;;5039739;28;20069;-66
2022/04/19 08:57:53;;;;;;;6.82;4.45;;;15.80;78.40;;;;;;5004338;28;20140;-66
2022/04/19 09:00:23;;;;;;;7.70;4.15;;;16.00;77.00;;;;;;5001918;28;20056;-66
2022/04/19 09:02:57;;;;;;;6.55;3.78;;;16.10;75.90;;;;;;5005748;28;20450;-66
2022/04/19 09:05:27;;;;;;;6.20;4.00;;;16.20;76.10;;;;;;5018409;28;20543;-66
2022/04/19 09:07:57;;;;;;;7.63;4.32;;;16.30;76.00;;;;;;5008405;28;20030;-64
2022/04/19 09:10:34;;;;;;;9.20;4.13;;;16.30;72.80;;;;;;5040085;28;20496;-65
2022/04/19 09:13:07;;;;;;;7.28;4.00;;;16.40;74.40;;;;;;5014451;28;20145;-66
2022/04/19 09:15:38;;;;;;;7.97;4.78;;;16.60;75.00;;;;;;5044691;28;20033;-64
2022/04/19 09:18:05;;;;;;;5.55;3.78;;;16.80;73.70;;;;;;5006222;28;20182;-64
2022/04/19 09:20:31;;;;;;;6.50;4.18;;;16.80;72.00;;;;;;5013400;28;20454;-63
2022/04/19 09:23:03;;;;;;;5.82;3.88;;;16.90;70.50;;;;;;5008116;28;20400;-64
2022/04/19 09:25:29;;;;;;;6.75;4.13;;;16.80;68.50;;;;;;5011427;28;20550;-63
2022/04/19 09:27:56;;;;;;;6.70;3.92;;;16.80;68.80;;;;;;5010845;28;20125;-63
2022/04/19 09:30:28;;;;;;;7.80;4.00;;;16.80;69.50;;;;;;5005097;28;20079;-59
2022/04/19 09:33:11;;;;;;;5.78;3.83;;;16.90;69.20;;;;;;5018350;28;20420;-64
2022/04/19 09:35:47;;;;;;;4.80;3.20;;;17.10;69.00;;;;;;5008012;28;20395;-64
2022/04/19 09:38:14;;;;;;;4.28;3.22;;;17.10;66.50;;;;;;5015970;28;20403;-62
2022/04/19 09:40:42;;;;;;;6.50;3.30;;;17.10;67.20;;;;;;5028619;28;20061;-62
2022/04/19 09:43:16;;;;;;;6.15;3.00;;;17.10;66.60;;;;;;5011519;28;20306;-62
2022/04/19 09:45:45;;;;;;;5.13;2.42;;;17.10;66.10;;;;;;5025371;28;20091;-62
2022/04/19 09:48:19;;;;;;;3.63;2.50;;;17.20;66.40;;;;;;5026858;28;20041;-62
2022/04/19 09:51:04;;;;;;;4.03;2.10;;;17.20;65.20;;;;;;4997275;28;20050;-63
2022/04/19 09:53:47;;;;;;;3.67;2.47;;;17.20;64.10;;;;;;5026287;28;20045;-63
2022/04/19 09:56:14;;;;;;;2.63;1.63;;;17.20;61.70;;;;;;5006979;28;20073;-62
2022/04/19 09:58:51;;;;;;;2.65;1.15;;;17.20;60.20;;;;;;5019248;28;20041;-63
2022/04/19 10:09:37;;;;;;;4.18;1.30;;;18.00;59.00;;;;;;5015897;28;20072;-62
2022/04/19 10:12:05;;;;;;;4.32;1.30;;;17.80;55.80;;;;;;5003195;28;20084;-63
2022/04/19 10:14:33;;;;;;;3.10;1.15;;;17.80;56.50;;;;;;5020412;28;20699;-62
2022/04/19 10:17:00;;;;;;;2.25;1.48;;;17.80;54.20;;;;;;5014997;28;20053;-64
2022/04/19 10:19:27;;;;;;;2.33;1.50;;;17.70;54.90;;;;;;5023475;28;20450;-62
2022/04/19 10:21:54;;;;;;;3.05;1.67;;;17.70;52.90;;;;;;5019341;28;20082;-63
2022/04/19 10:24:20;;;;;;;1.83;1.05;;;17.60;53.00;;;;;;5032680;28;20167;-62
2022/04/19 10:26:48;;;;;;;6.20;1.70;;;17.70;54.10;;;;;;5014831;28;20050;-61
2022/04/19 10:29:25;;;;;;;2.30;1.50;;;17.80;54.10;;;;;;5007244;28;20034;-63
2022/04/19 10:32:03;;;;;;;2.08;1.30;;;17.80;49.30;;;;;;5043605;28;20046;-62
2022/04/19 10:34:34;;;;;;;1.70;0.90;;;17.70;51.80;;;;;;5043178;28;20252;-61
2022/04/19 10:37:12;;;;;;;2.85;0.93;;;18.00;53.60;;;;;;5014411;28;20077;-62
2022/04/19 10:39:59;;;;;;;1.77;1.10;;;18.10;50.90;;;;;;5022144;28;20123;-62
2022/04/19 10:42:29;;;;;;;5.05;1.83;;;18.30;52.60;;;;;;5014380;28;20128;-63
2022/04/19 10:44:56;;;;;;;5.18;1.88;;;18.20;52.00;;;;;;5003571;28;20042;-61
2022/04/19 10:47:23;;;;;;;3.72;1.52;;;18.40;53.60;;;;;;5032274;28;20125;-62
2022/04/19 10:49:59;;;;;;;3.05;1.70;;;18.30;54.30;;;;;;4999506;28;20120;-66
2022/04/19 10:52:37;;;;;;;3.60;1.65;;;18.30;53.00;;;;;;5004737;28;20052;-61
2022/04/19 10:55:08;;;;;;;3.10;1.75;;;18.20;52.00;;;;;;4984833;28;20042;-61
2022/04/19 11:00:35;;;;;;;3.53;1.80;;;18.20;52.10;;;;;;5004927;28;20439;-62
2022/04/19 11:03:18;;;;;;;3.65;2.15;;;18.40;53.90;;;;;;4996687;28;20046;-63
2022/04/19 11:05:47;;;;;;;6.03;2.00;;;18.40;53.20;;;;;;4990846;28;20411;-63
2022/04/19 11:08:24;;;;;;;5.30;1.73;;;18.30;54.40;;;;;;4990095;28;20293;-63
2022/04/19 11:11:02;;;;;;;3.85;1.98;;;18.50;54.60;;;;;;4997936;28;20530;-61
2022/04/19 11:13:39;;;;;;;4.25;2.17;;;18.60;55.00;;;;;;4997609;28;20052;-69
2022/04/19 11:16:07;;;;;;;2.92;2.22;;;18.70;53.70;;;;;;5020329;28;20140;-63
2022/04/19 11:18:39;;;;;;;3.15;1.83;;;18.70;54.10;;;;;;4997602;28;20050;-62
2022/04/19 11:21:12;;;;;;;3.90;2.13;;;19.00;53.20;;;;;;5001029;28;20041;-61
2022/04/19 11:23:49;;;;;;;6.10;1.75;;;19.00;52.80;;;;;;5006353;28;20109;-63
2022/04/19 11:26:26;;;;;;;3.92;1.92;;;18.90;52.80;;;;;;4998716;28;20219;-61
2022/04/19 11:29:16;;;;;;;3.83;1.98;;;18.90;52.50;;;;;;4987353;28;20029;-62
2022/04/19 11:31:44;;;;;;;3.47;1.80;;;19.00;53.30;;;;;;5002016;28;20132;-64
2022/04/19 11:34:11;;;;;;;3.58;2.10;;;18.90;52.30;;;;;;5005173;28;20483;-64
2022/04/19 11:36:37;;;;;;;3.85;2.78;;;18.90;53.10;;;;;;5008979;28;20093;-63
2022/04/19 11:39:03;;;;;;;2.70;2.00;;;18.70;52.50;;;;;;5011806;28;20179;-63
2022/04/19 11:46:48;;;;;;;3.60;2.13;;;19.00;53.50;;;;;;5011869;28;20045;-62
2022/04/19 11:49:20;;;;;;;4.43;1.98;;;19.10;54.10;;;;;;5045753;28;20419;-63
2022/04/19 11:51:52;;;;;;;3.67;1.88;;;19.20;53.10;;;;;;5015873;28;20633;-61
2022/04/19 11:54:23;;;;;;;3.05;2.10;;;19.30;53.00;;;;;;5015617;28;20416;-62
2022/04/19 11:57:00;;;;;;;2.88;1.77;;;19.20;52.20;;;;;;5016151;28;20049;-60
2022/04/19 11:59:28;;;;;;;2.95;1.63;;;19.10;52.90;;;;;;5013577;28;20547;-60
2022/04/19 12:01:55;;;;;;;2.92;1.67;;;19.40;52.70;;;;;;5011566;28;20050;-61
2022/04/19 12:04:22;;;;;;;3.78;2.00;;;19.70;52.90;;;;;;4994043;28;20070;-62
2022/04/19 12:06:50;;;;;;;3.15;2.15;;;19.70;52.30;;;;;;5017504;28;20053;-62
2022/04/19 12:09:17;;;;;;;2.83;1.90;;;19.40;52.30;;;;;;5015428;28;20657;-59
2022/04/19 12:11:43;;;;;;;3.35;2.30;;;19.30;52.60;;;;;;5014151;28;20451;-62
2022/04/19 12:14:09;;;;;;;3.80;2.28;;;19.30;53.90;;;;;;5014593;28;20087;-63
2022/04/19 12:16:39;;;;;;;4.28;2.22;;;19.50;53.60;;;;;;5020388;28;20037;-63
2022/04/19 12:19:07;;;;;;;4.13;2.40;;;19.70;53.50;;;;;;5019663;28;20411;-62
2022/04/19 12:21:39;;;;;;;3.80;2.60;;;19.90;52.90;;;;;;5014671;28;20096;-62
2022/04/19 12:24:19;;;;;;;4.38;2.30;;;20.00;52.70;;;;;;5010890;28;20053;-61
2022/04/19 12:26:50;;;;;;;4.15;2.17;;;20.00;53.10;;;;;;5020586;28;20143;-62
2022/04/19 12:29:16;;;;;;;8.02;2.30;;;20.20;53.20;;;;;;5010704;28;20128;-63
2022/04/19 12:31:46;;;;;;;4.45;2.50;;;20.10;51.40;;;;;;5008927;28;20050;-64
2022/04/19 12:34:15;;;;;;;5.35;2.80;;;20.10;52.20;;;;;;5046490;28;20042;-59
2022/04/19 12:36:42;;;;;;;4.10;2.30;;;19.80;51.00;;;;;;5010901;28;20440;-63
2022/04/19 12:39:08;;;;;;;4.57;2.33;;;19.90;51.50;;;;;;5012574;28;20049;-59
2022/04/19 12:41:45;;;;;;;3.97;2.22;;;19.90;52.30;;;;;;5014036;28;20104;-62
2022/04/19 12:44:16;;;;;;;4.68;2.63;;;19.80;54.40;;;;;;5015326;28;20096;-62
2022/04/19 12:46:44;;;;;;;3.53;2.80;;;19.80;52.70;;;;;;4988880;28;20046;-64
2022/04/19 12:49:23;;;;;;;3.90;2.40;;;19.50;52.40;;;;;;5011772;28;20124;-64
2022/04/19 12:51:57;;;;;;;2.80;2.10;;;19.80;55.10;;;;;;5013870;28;20130;-62
2022/04/19 12:54:28;;;;;;;3.38;2.53;;;20.10;53.90;;;;;;5015533;28;20034;-61
2022/04/19 12:57:02;;;;;;;2.78;2.05;;;19.90;51.60;;;;;;5007999;28;20164;-62
2022/04/19 12:59:33;;;;;;;2.63;2.00;;;20.00;52.10;;;;;;5019724;28;20309;-62
2022/04/19 13:02:00;;;;;;;5.57;2.85;;;20.10;52.60;;;;;;5008909;28;20454;-63
2022/04/19 13:04:26;;;;;;;4.65;2.20;;;20.10;50.60;;;;;;5000400;28;20199;-61
2022/04/19 13:12:22;;;;;;;3.28;2.50;;;19.80;52.30;;;;;;5015830;28;20073;-61
2022/04/19 13:14:51;;;;;;;5.28;2.45;;;20.20;52.80;;;;;;5015116;28;20088;-60
2022/04/19 13:17:17;;;;;;;6.43;3.40;;;20.70;54.40;;;;;;5041043;28;20065;-67
2022/04/19 13:19:44;;;;;;;5.05;2.80;;;20.70;52.00;;;;;;5006180;28;20301;-61
2022/04/19 13:22:11;;;;;;;5.80;2.40;;;20.50;52.20;;;;;;5008219;28;20249;-60
2022/04/19 13:24:38;;;;;;;4.80;3.17;;;20.30;52.40;;;;;;5006497;28;20124;-62
2022/04/19 13:27:06;;;;;;;5.50;3.00;;;20.30;51.80;;;;;;4999128;28;21452;-64
2022/04/19 13:29:33;;;;;;;5.40;3.38;;;19.80;52.90;;;;;;5012641;28;20042;-61
2022/04/19 13:32:00;;;;;;;4.55;2.80;;;20.00;53.00;;;;;;5012162;28;20045;-63